Cumberland, Maine
Current Conditions -  °F | °C
As of 7:51 AM on Tuesday 21 Oct 2014 (Local Time) from KPWM Reporting Station
Broken Clouds Broken Clouds  
Wind Chill: 46°   Ceiling: 15000
Heat Index: 46°   Visibility: 10mi
Dew Point: 42°   Wind: 3mph
Humidity: 86%   Direction: 350°N
Pressure: 30.03"   Gusts: NA
Location:  43.7981°N, 70.2656°W
Report Text: KPWM 211151Z 35003KT 10SM BKN150 08/06 A3003 RMK AO2 SLP168 60000 T00780056 10094 20072 53003
Loading
Personal Weather Stations






























Interactive Weather Map
Tropical Storm Tracking
New forecast layout! Learn more

10-Day Weather Forecast

Advertisements
Track Severe Weather on mobile